createdAt,value
2018-11-21T00:00:46.910Z,30.20
2018-11-21T00:03:17.916Z,30.40
2018-11-21T00:05:47.155Z,30.50
2018-11-21T00:08:17.481Z,30.10
2018-11-21T00:10:47.816Z,29.90
2018-11-21T00:13:18.067Z,29.80
2018-11-21T00:15:48.257Z,29.70
2018-11-21T00:18:18.391Z,28.70
2018-11-21T00:20:48.626Z,28.30
2018-11-21T00:23:18.743Z,27.90
2018-11-21T00:25:48.658Z,27.80
2018-11-21T00:28:19.045Z,27.80
2018-11-21T00:30:48.036Z,28.30
2018-11-21T00:33:33.496Z,28.70
2018-11-21T00:36:04.359Z,27.90
2018-11-21T00:38:34.434Z,27.40
2018-11-21T00:41:04.790Z,26.80
2018-11-21T00:43:34.811Z,26.80
2018-11-21T00:46:03.474Z,27.00
2018-11-21T00:48:33.708Z,27.50
2018-11-21T00:51:03.948Z,28.10
2018-11-21T00:53:34.295Z,28.90
2018-11-21T00:56:04.246Z,29.20
2018-11-21T00:58:32.939Z,29.30
2018-11-21T01:01:05.081Z,29.40
2018-11-21T01:03:35.662Z,29.60
2018-11-21T01:06:05.616Z,30.60
2018-11-21T01:08:35.945Z,30.90
2018-11-21T01:11:04.399Z,31.10
2018-11-21T01:13:34.263Z,30.50
2018-11-21T01:16:04.345Z,29.50
2018-11-21T01:18:34.724Z,29.10
2018-11-21T01:21:21.926Z,28.80
2018-11-21T01:23:51.779Z,28.60
2018-11-21T01:26:22.328Z,29.10
2018-11-21T01:28:52.426Z,29.60
2018-11-21T01:31:22.420Z,29.30
2018-11-21T01:33:52.631Z,28.60
2018-11-21T01:36:22.332Z,28.10
2018-11-21T01:38:52.430Z,27.50
2018-11-21T01:41:22.386Z,27.40
2018-11-21T01:43:52.465Z,27.50
2018-11-21T01:46:23.036Z,28.40
2018-11-21T01:48:52.690Z,28.30
2018-11-21T01:51:23.212Z,27.80
2018-11-21T01:53:53.517Z,27.30
2018-11-21T01:56:23.750Z,26.80
2018-11-21T01:58:54.293Z,26.80
2018-11-21T02:01:24.396Z,27.20
2018-11-21T02:03:54.492Z,27.50
2018-11-21T02:06:24.715Z,27.70
2018-11-21T02:08:54.689Z,28.10
2018-11-21T02:11:24.521Z,28.40
2018-11-21T02:13:54.620Z,28.50
2018-11-21T02:16:24.765Z,28.50
2018-11-21T02:18:55.037Z,28.50
2018-11-21T02:21:24.931Z,28.50
2018-11-21T02:23:54.740Z,28.50
2018-11-21T02:26:23.993Z,29.50
2018-11-21T02:28:54.624Z,29.80
2018-11-21T02:31:25.019Z,29.40
2018-11-21T02:33:55.195Z,29.20
2018-11-21T02:36:25.470Z,29.20
2018-11-21T02:38:54.979Z,28.80
2018-11-21T02:41:25.303Z,28.70
2018-11-21T02:43:55.658Z,28.60
2018-11-21T02:46:25.906Z,29.20
2018-11-21T02:48:56.271Z,29.90
2018-11-21T02:51:25.684Z,30.10
2018-11-21T02:53:56.244Z,30.50
2018-11-21T02:56:42.954Z,30.50
2018-11-21T02:59:12.919Z,30.50
2018-11-21T03:01:42.465Z,30.50
2018-11-21T03:04:12.609Z,30.80
2018-11-21T03:06:42.603Z,31.50
2018-11-21T03:09:12.453Z,32.10
2018-11-21T03:11:42.519Z,31.40
2018-11-21T03:14:12.571Z,30.40
2018-11-21T03:16:42.493Z,29.80
2018-11-21T03:19:12.671Z,29.70
2018-11-21T03:21:42.712Z,29.60
2018-11-21T03:24:12.694Z,29.10
2018-11-21T03:26:41.951Z,28.80
2018-11-21T03:29:11.313Z,28.80
2018-11-21T03:31:40.624Z,28.40
2018-11-21T03:34:09.765Z,28.30
2018-11-21T03:36:39.146Z,28.10
2018-11-21T03:39:10.260Z,28.60
2018-11-21T03:41:39.654Z,29.10
2018-11-21T03:44:09.821Z,29.10
2018-11-21T03:46:39.406Z,28.40
2018-11-21T03:49:08.768Z,27.90
2018-11-21T03:51:39.554Z,27.50
2018-11-21T03:54:09.168Z,27.40
2018-11-21T03:56:39.132Z,28.40
2018-11-21T03:59:25.383Z,28.40
2018-11-21T04:01:55.507Z,27.90
2018-11-21T04:04:25.700Z,27.20
2018-11-21T04:06:55.145Z,26.70
2018-11-21T04:09:24.699Z,26.60
2018-11-21T04:11:55.871Z,27.10
2018-11-21T04:14:23.295Z,27.80
2018-11-21T04:16:52.010Z,28.40
2018-11-21T04:19:20.560Z,28.90
2018-11-21T04:21:49.231Z,29.20
2018-11-21T04:24:19.418Z,29.50
2018-11-21T04:26:49.339Z,29.20
2018-11-21T04:29:18.999Z,29.20
2018-11-21T04:31:49.342Z,29.20
2018-11-21T04:34:19.549Z,29.30
2018-11-21T04:36:49.594Z,29.20
2018-11-21T04:39:19.772Z,29.00
2018-11-21T04:41:49.801Z,29.20
2018-11-21T04:44:19.875Z,29.00
2018-11-21T04:46:50.063Z,28.80
2018-11-21T04:49:20.364Z,28.70
2018-11-21T04:51:49.790Z,28.60
2018-11-21T04:54:19.625Z,28.50
2018-11-21T04:56:49.752Z,28.50
2018-11-21T04:59:19.575Z,29.30
2018-11-21T05:01:48.295Z,30.70
2018-11-21T05:04:22.359Z,31.20
2018-11-21T05:06:52.791Z,31.40
2018-11-21T05:09:22.646Z,31.40
2018-11-21T05:11:53.243Z,31.40
2018-11-21T05:14:23.093Z,31.60
2018-11-21T05:16:53.482Z,31.80
2018-11-21T05:19:23.516Z,31.20
2018-11-21T05:21:53.729Z,30.40
2018-11-21T05:24:28.370Z,29.60
2018-11-21T05:27:00.678Z,29.20
2018-11-21T05:29:30.621Z,29.00
2018-11-21T05:32:00.705Z,29.40
2018-11-21T05:34:31.157Z,29.10
2018-11-21T05:36:59.821Z,28.60
2018-11-21T05:39:30.014Z,28.40
2018-11-21T05:42:00.148Z,28.20
2018-11-21T05:44:31.487Z,28.50
2018-11-21T05:47:01.030Z,29.10
2018-11-21T05:49:42.101Z,29.80
2018-11-21T05:52:12.932Z,30.20
2018-11-21T05:54:43.051Z,30.50
2018-11-21T05:57:13.611Z,30.70
2018-11-21T05:59:45.591Z,30.80
2018-11-21T06:02:15.814Z,31.20
2018-11-21T06:04:45.963Z,31.40
2018-11-21T06:07:16.037Z,31.40
2018-11-21T06:09:46.123Z,31.00
2018-11-21T06:12:16.691Z,30.40
2018-11-21T06:14:47.141Z,29.50
2018-11-21T06:17:17.463Z,29.00
2018-11-21T06:19:47.571Z,28.70
2018-11-21T06:22:17.503Z,28.50
2018-11-21T06:24:47.099Z,28.90
2018-11-21T06:27:17.958Z,29.10
2018-11-21T06:29:47.963Z,28.90
2018-11-21T06:32:18.110Z,28.50
2018-11-21T06:34:48.320Z,28.00
2018-11-21T06:37:18.315Z,28.20
2018-11-21T06:39:48.463Z,28.70
2018-11-21T06:42:18.595Z,29.30
2018-11-21T06:44:48.777Z,29.70
2018-11-21T06:47:19.409Z,30.10
2018-11-21T06:49:49.763Z,30.30
2018-11-21T06:52:22.251Z,30.30
2018-11-21T06:54:50.059Z,30.30
2018-11-21T06:57:20.352Z,30.50
2018-11-21T06:59:50.475Z,30.60
2018-11-21T07:02:19.874Z,30.40
2018-11-21T07:04:49.974Z,31.30
2018-11-21T07:07:19.820Z,32.20
2018-11-21T07:09:50.309Z,32.40
2018-11-21T07:12:20.555Z,32.60
2018-11-21T07:14:49.930Z,32.50
2018-11-21T07:17:20.197Z,31.80
2018-11-21T07:19:50.664Z,30.70
2018-11-21T07:22:20.701Z,29.90
2018-11-21T07:24:51.012Z,29.30
2018-11-21T07:27:21.418Z,28.30
2018-11-21T07:29:51.476Z,27.90
2018-11-21T07:32:26.403Z,27.90
2018-11-21T07:34:56.679Z,27.80
2018-11-21T07:37:27.085Z,27.80
2018-11-21T07:39:56.847Z,28.30
2018-11-21T07:42:27.159Z,28.90
2018-11-21T07:44:57.903Z,29.40
2018-11-21T07:47:28.477Z,29.80
2018-11-21T07:49:58.859Z,30.70
2018-11-21T07:52:28.208Z,31.40
2018-11-21T07:54:58.163Z,31.60
2018-11-21T07:57:32.879Z,31.70
2018-11-21T08:00:20.430Z,31.90
2018-11-21T08:02:50.079Z,32.00
2018-11-21T08:05:23.908Z,31.60
2018-11-21T08:08:12.835Z,31.00
2018-11-21T08:11:16.405Z,30.00
2018-11-21T08:14:14.701Z,29.50
2018-11-21T08:17:03.455Z,29.10
2018-11-21T08:20:07.744Z,29.20
2018-11-21T08:24:23.593Z,29.20
2018-11-21T08:27:13.900Z,28.30
2018-11-21T08:29:45.369Z,27.90
2018-11-21T08:32:17.195Z,27.90
2018-11-21T08:34:50.043Z,28.50
2018-11-21T08:37:21.477Z,29.10
2018-11-21T08:39:51.461Z,29.30
2018-11-21T08:42:22.682Z,29.10
2018-11-21T08:44:54.722Z,29.00
2018-11-21T08:47:26.216Z,28.90
2018-11-21T08:49:57.980Z,29.20
2018-11-21T08:52:28.029Z,29.40
2018-11-21T08:54:59.550Z,29.50
2018-11-21T08:57:31.104Z,29.90
2018-11-21T09:00:02.795Z,30.30
2018-11-21T09:02:34.272Z,30.20
2018-11-21T09:05:04.442Z,30.80
2018-11-21T09:07:36.033Z,31.70
2018-11-21T09:10:09.065Z,32.30
2018-11-21T09:12:41.165Z,32.80
2018-11-21T09:15:15.004Z,32.80
2018-11-21T09:17:46.420Z,32.00
2018-11-21T09:20:18.057Z,31.10
2018-11-21T09:22:49.750Z,30.80
2018-11-21T09:25:21.350Z,30.40
2018-11-21T09:27:53.236Z,30.30
2018-11-21T09:30:25.394Z,30.00
2018-11-21T09:32:58.417Z,29.80
2018-11-21T09:35:30.049Z,29.40
2018-11-21T09:38:02.031Z,29.40
2018-11-21T09:40:33.604Z,29.00
2018-11-21T09:43:04.171Z,28.80
2018-11-21T09:45:35.881Z,29.20
2018-11-21T09:48:07.544Z,29.40
2018-11-21T09:50:39.042Z,29.00
2018-11-21T09:53:10.830Z,28.50
2018-11-21T09:55:42.377Z,28.20
2018-11-21T09:58:12.885Z,28.00
2018-11-21T10:01:01.623Z,28.20
2018-11-21T10:03:34.574Z,28.90
2018-11-21T10:06:07.955Z,29.90
2018-11-21T10:08:40.991Z,29.30
2018-11-21T10:11:12.827Z,29.10
2018-11-21T10:13:44.128Z,29.10
2018-11-21T10:16:16.110Z,29.20
2018-11-21T10:18:49.378Z,29.10
2018-11-21T10:21:22.537Z,29.20
2018-11-21T10:23:54.008Z,29.50
2018-11-21T10:26:24.072Z,29.50
2018-11-21T10:28:56.059Z,30.40
2018-11-21T10:31:27.891Z,31.10
2018-11-21T10:33:58.450Z,31.30
2018-11-21T10:36:29.838Z,31.30
2018-11-21T10:39:01.842Z,31.20
2018-11-21T10:41:33.573Z,31.20
2018-11-21T10:44:05.078Z,30.40
2018-11-21T10:46:36.813Z,29.60
2018-11-21T10:49:07.088Z,29.00
2018-11-21T10:51:38.455Z,28.70
2018-11-21T10:54:09.819Z,29.10
2018-11-21T10:56:41.598Z,29.90
2018-11-21T10:59:13.387Z,30.50
2018-11-21T11:02:13.277Z,30.30
2018-11-21T11:05:03.133Z,29.60
2018-11-21T11:08:04.651Z,29.00
2018-11-21T11:11:05.020Z,28.60
2018-11-21T11:13:50.899Z,28.90
2018-11-21T11:16:40.037Z,29.60
2018-11-21T11:19:28.870Z,29.30
2018-11-21T11:22:49.403Z,28.50
2018-11-21T11:25:39.514Z,27.90
2018-11-21T11:28:35.706Z,28.00
2018-11-21T11:31:38.348Z,28.90
2018-11-21T11:34:26.644Z,30.10
2018-11-21T11:37:15.255Z,31.00
2018-11-21T11:40:24.654Z,31.10
2018-11-21T11:43:13.488Z,31.00
2018-11-21T11:46:02.694Z,31.10
2018-11-21T11:48:45.075Z,31.20
2018-11-21T11:51:44.911Z,30.90
2018-11-21T11:54:33.329Z,30.00
2018-11-21T11:57:28.455Z,29.30
2018-11-21T12:00:18.003Z,28.60
2018-11-21T12:03:15.125Z,28.20
2018-11-21T12:06:19.696Z,27.90
2018-11-21T12:09:12.496Z,27.80
2018-11-21T12:12:09.350Z,27.60
2018-11-21T12:15:05.335Z,27.70
2018-11-21T12:17:55.187Z,27.30
2018-11-21T12:21:02.123Z,26.30
2018-11-21T12:24:06.660Z,27.50
2018-11-21T12:26:57.936Z,28.00
2018-11-21T12:29:52.463Z,28.00
2018-11-21T12:32:43.074Z,28.50
2018-11-21T12:35:31.934Z,29.10
2018-11-21T12:38:32.585Z,29.50
2018-11-21T12:41:33.794Z,29.90
2018-11-21T12:44:23.698Z,30.10
2018-11-21T12:47:13.791Z,29.80
2018-11-21T12:49:59.527Z,30.00
2018-11-21T12:52:56.425Z,29.70
2018-11-21T12:55:50.407Z,29.50
2018-11-21T12:58:42.294Z,29.60
2018-11-21T13:01:35.624Z,29.50
2018-11-21T13:04:26.079Z,28.80
2018-11-21T13:07:35.012Z,28.60
2018-11-21T13:10:26.800Z,28.50
2018-11-21T13:13:16.726Z,29.00
2018-11-21T13:16:08.945Z,29.30
2018-11-21T13:19:02.305Z,30.20
2018-11-21T13:21:56.426Z,30.20
2018-11-21T13:24:45.342Z,30.30
2018-11-21T13:30:42.976Z,29.20
2018-11-21T13:33:42.872Z,28.50
2018-11-21T13:36:31.644Z,28.50
2018-11-21T13:39:21.334Z,29.10
2018-11-21T13:42:17.635Z,30.00
2018-11-21T13:44:57.989Z,30.30
2018-11-21T13:47:49.686Z,29.80
2018-11-21T13:50:39.947Z,29.30
2018-11-21T13:53:25.778Z,29.00
2018-11-21T13:55:56.031Z,28.90
2018-11-21T13:58:26.312Z,29.80
2018-11-21T14:00:57.906Z,29.70
2018-11-21T14:03:29.358Z,29.20
2018-11-21T14:06:01.008Z,28.60
2018-11-21T14:08:32.822Z,28.30
2018-11-21T14:11:02.892Z,27.90
2018-11-21T14:13:34.200Z,28.40
2018-11-21T14:16:05.307Z,29.20
2018-11-21T14:18:36.043Z,30.00
2018-11-21T14:21:06.986Z,30.50
2018-11-21T14:23:40.384Z,30.70
2018-11-21T14:26:11.864Z,30.80
2018-11-21T14:28:43.374Z,30.80
2018-11-21T14:31:15.590Z,30.90
2018-11-21T14:33:47.099Z,30.70
2018-11-21T14:36:35.397Z,30.90
2018-11-21T14:39:09.846Z,30.00
2018-11-21T14:41:42.475Z,29.10
2018-11-21T14:44:14.224Z,28.80
2018-11-21T14:46:46.592Z,28.50
2018-11-21T14:49:17.316Z,28.20
2018-11-21T14:51:48.984Z,28.60
2018-11-21T14:54:20.632Z,29.30
2018-11-21T14:56:51.910Z,29.00
2018-11-21T14:59:23.560Z,28.50
2018-11-21T15:01:53.578Z,27.90
2018-11-21T15:04:25.363Z,27.40
2018-11-21T15:06:57.133Z,27.80
2018-11-21T15:09:28.680Z,28.30
2018-11-21T15:12:00.192Z,29.00
2018-11-21T15:14:30.951Z,29.50
2018-11-21T15:17:02.384Z,29.80
2018-11-21T15:19:34.171Z,30.10
2018-11-21T15:22:05.079Z,30.20
2018-11-21T15:24:38.146Z,30.40
2018-11-21T15:27:08.894Z,30.30
2018-11-21T15:29:39.580Z,30.40
2018-11-21T15:32:11.356Z,30.70
2018-11-21T15:35:00.336Z,30.60
2018-11-21T15:37:32.097Z,30.30
2018-11-21T15:40:03.916Z,30.10
2018-11-21T15:42:34.948Z,30.50
2018-11-21T15:45:06.623Z,30.50
2018-11-21T15:47:38.167Z,30.60
2018-11-21T15:50:10.731Z,30.60
2018-11-21T15:52:42.168Z,30.60
2018-11-21T15:55:13.614Z,30.90
2018-11-21T15:57:44.728Z,31.20
2018-11-21T16:00:16.098Z,31.60
2018-11-21T16:02:47.771Z,31.70
2018-11-21T16:05:19.024Z,31.40
2018-11-21T16:07:49.234Z,30.80
2018-11-21T16:10:22.362Z,30.20
2018-11-21T16:12:53.086Z,30.00
2018-11-21T16:15:26.562Z,29.90
2018-11-21T16:17:57.973Z,30.20
2018-11-21T16:20:28.718Z,30.50
2018-11-21T16:23:15.772Z,30.40
2018-11-21T16:25:47.406Z,30.00
2018-11-21T16:28:19.120Z,29.40
2018-11-21T16:30:50.990Z,29.40
2018-11-21T16:33:21.156Z,29.90
2018-11-21T16:35:51.976Z,30.90
2018-11-21T16:38:22.625Z,30.50
2018-11-21T16:40:54.584Z,29.60
2018-11-21T16:43:26.227Z,29.00
2018-11-21T16:45:58.616Z,28.70
2018-11-21T16:48:28.931Z,28.40
2018-11-21T16:50:59.895Z,28.90
2018-11-21T16:53:35.062Z,29.70
2018-11-21T16:56:03.364Z,30.40
2018-11-21T16:58:33.841Z,30.70
2018-11-21T17:01:04.034Z,30.70
2018-11-21T17:03:34.726Z,30.50
2018-11-21T17:06:05.631Z,30.60
2018-11-21T17:08:37.730Z,30.60
2018-11-21T17:11:08.722Z,30.80
2018-11-21T17:13:39.793Z,30.90
2018-11-21T17:16:10.871Z,30.50
2018-11-21T17:18:42.314Z,30.20
2018-11-21T17:21:13.560Z,30.10
2018-11-21T17:23:43.567Z,30.10
2018-11-21T17:26:13.717Z,30.40
2018-11-21T17:28:44.460Z,30.60
2018-11-21T17:31:15.986Z,30.90
2018-11-21T17:33:52.102Z,31.20
2018-11-21T17:36:19.298Z,31.60
2018-11-21T17:38:50.067Z,31.80
2018-11-21T17:41:22.004Z,31.80
2018-11-21T17:43:53.432Z,31.60
2018-11-21T17:46:25.088Z,31.60
2018-11-21T17:48:56.556Z,30.80
2018-11-21T17:51:28.365Z,30.10
2018-11-21T17:53:59.885Z,29.70
2018-11-21T17:56:31.798Z,29.70
2018-11-21T17:59:03.555Z,30.20
2018-11-21T18:01:36.130Z,31.00
2018-11-21T18:04:07.813Z,31.30
2018-11-21T18:06:39.598Z,31.10
2018-11-21T18:09:12.807Z,30.30
2018-11-21T18:11:44.422Z,29.90
2018-11-21T18:14:15.818Z,29.70
2018-11-21T18:16:47.684Z,29.60
2018-11-21T18:19:17.810Z,29.40
2018-11-21T18:21:49.234Z,28.90
2018-11-21T18:24:20.708Z,28.40
2018-11-21T18:26:52.214Z,27.80
2018-11-21T18:29:23.668Z,27.60
2018-11-21T18:31:55.429Z,27.90
2018-11-21T18:34:26.865Z,28.40
2018-11-21T18:36:58.546Z,28.50
2018-11-21T18:39:30.365Z,28.80
2018-11-21T18:42:02.083Z,29.60
2018-11-21T18:44:33.224Z,29.60
2018-11-21T18:47:04.947Z,29.50
2018-11-21T18:49:36.526Z,29.60
2018-11-21T18:52:08.429Z,30.00
2018-11-21T18:54:43.582Z,30.30
2018-11-21T18:57:31.461Z,30.30
2018-11-21T19:00:13.621Z,30.90
2018-11-21T19:02:45.302Z,31.10
2018-11-21T19:05:16.741Z,31.40
2018-11-21T19:07:48.194Z,31.80
2018-11-21T19:10:18.940Z,31.90
2018-11-21T19:12:50.730Z,32.10
2018-11-21T19:15:22.296Z,32.00
2018-11-21T19:17:53.711Z,31.10
2018-11-21T19:20:25.494Z,30.40
2018-11-21T19:22:56.445Z,30.00
2018-11-21T19:25:28.164Z,29.70
2018-11-21T19:27:59.497Z,30.10
2018-11-21T19:30:31.116Z,31.30
2018-11-21T19:33:02.701Z,31.20
2018-11-21T19:35:34.270Z,30.70
2018-11-21T19:38:05.942Z,30.20
2018-11-21T19:40:37.846Z,30.00
2018-11-21T19:43:09.566Z,30.20
2018-11-21T19:45:41.553Z,30.80
2018-11-21T19:48:13.296Z,31.20
2018-11-21T19:50:45.131Z,30.40
2018-11-21T19:53:16.796Z,29.70
2018-11-21T19:55:48.506Z,29.20
2018-11-21T19:58:19.463Z,29.00
2018-11-21T20:00:51.039Z,28.80
2018-11-21T20:03:22.674Z,29.40
2018-11-21T20:05:54.633Z,30.20
2018-11-21T20:08:26.544Z,30.30
2018-11-21T20:10:58.348Z,30.50
2018-11-21T20:13:36.515Z,30.50
2018-11-21T20:16:08.222Z,30.20
2018-11-21T20:18:40.211Z,30.40
2018-11-21T20:21:11.767Z,30.40
2018-11-21T20:23:43.238Z,30.60
2018-11-21T20:26:15.028Z,30.70
2018-11-21T20:28:46.395Z,30.60
2018-11-21T20:31:18.136Z,30.90
2018-11-21T20:33:48.150Z,31.10
2018-11-21T20:36:19.490Z,31.20
2018-11-21T20:38:51.041Z,31.20
2018-11-21T20:41:22.652Z,31.60
2018-11-21T20:43:54.112Z,31.60
2018-11-21T20:46:24.904Z,31.10
2018-11-21T20:48:56.379Z,30.00
2018-11-21T20:51:28.492Z,29.50
2018-11-21T20:53:59.899Z,28.80
2018-11-21T20:56:31.379Z,27.80
2018-11-21T20:59:02.124Z,28.00
2018-11-21T21:01:33.723Z,28.60
2018-11-21T21:04:05.945Z,29.70
2018-11-21T21:06:37.820Z,29.90
2018-11-21T21:09:12.137Z,30.00
2018-11-21T21:11:52.946Z,29.80
2018-11-21T21:14:23.360Z,29.60
2018-11-21T21:16:54.926Z,30.80
2018-11-21T21:19:26.938Z,31.20
2018-11-21T21:21:59.178Z,31.50
2018-11-21T21:24:30.265Z,31.40
2018-11-21T21:27:00.274Z,30.40
2018-11-21T21:29:32.232Z,29.50
2018-11-21T21:32:03.840Z,28.90
2018-11-21T21:34:35.659Z,28.50
2018-11-21T21:37:07.881Z,28.30
2018-11-21T21:39:38.623Z,28.00
2018-11-21T21:42:10.333Z,28.10
2018-11-21T21:44:41.827Z,28.10
2018-11-21T21:47:13.299Z,28.20
2018-11-21T21:49:45.153Z,28.60
2018-11-21T21:52:15.842Z,28.90
2018-11-21T21:54:50.929Z,28.30
2018-11-21T21:57:20.934Z,27.80
2018-11-21T21:59:51.580Z,27.40
2018-11-21T22:02:22.862Z,27.30
2018-11-21T22:04:53.636Z,27.40
2018-11-21T22:07:24.966Z,28.10
2018-11-21T22:09:56.647Z,29.10
2018-11-21T22:12:28.118Z,30.00
2018-11-21T22:15:24.370Z,30.40
2018-11-21T22:17:55.830Z,30.70
2018-11-21T22:20:26.820Z,31.00
2018-11-21T22:22:58.344Z,31.10
2018-11-21T22:25:29.923Z,31.20
2018-11-21T22:28:00.765Z,31.20
2018-11-21T22:30:31.526Z,30.20
2018-11-21T22:33:03.466Z,29.50
2018-11-21T22:35:36.186Z,28.80
2018-11-21T22:38:06.412Z,28.50
2018-11-21T22:40:37.888Z,28.10
2018-11-21T22:43:08.452Z,28.00
2018-11-21T22:45:39.602Z,27.50
2018-11-21T22:48:13.058Z,27.30
2018-11-21T22:50:43.794Z,27.50
2018-11-21T22:53:13.960Z,28.10
2018-11-21T22:55:43.918Z,28.60
2018-11-21T22:58:13.979Z,28.90
2018-11-21T23:00:49.016Z,28.90
2018-11-21T23:03:19.775Z,29.20
2018-11-21T23:05:49.769Z,29.00
2018-11-21T23:08:19.737Z,29.00
2018-11-21T23:10:51.146Z,29.30
2018-11-21T23:13:21.252Z,30.60
2018-11-21T23:15:52.882Z,31.10
2018-11-21T23:18:25.102Z,31.10
2018-11-21T23:20:56.169Z,31.30
2018-11-21T23:23:28.328Z,31.50
2018-11-21T23:26:00.529Z,31.20
2018-11-21T23:28:31.832Z,30.20
2018-11-21T23:31:03.536Z,29.80
2018-11-21T23:33:35.073Z,29.20
2018-11-21T23:36:06.798Z,28.90
2018-11-21T23:38:38.337Z,28.80
2018-11-21T23:41:10.122Z,28.50
2018-11-21T23:43:41.827Z,28.50
2018-11-21T23:46:13.381Z,27.90
2018-11-21T23:48:44.785Z,27.30
2018-11-21T23:51:16.137Z,27.60
2018-11-21T23:54:03.169Z,27.50
2018-11-21T23:56:34.932Z,27.10
2018-11-21T23:59:06.393Z,26.70
